Accueil
METAR-TAF:

METAR-TAF

Aéroports :

Aéroport international Roi-Abdelaziz

Djeddah, Arabie saoudite

latitude: 21-42N, longitude: 039-11E, altitude: 15 m

Observation

Le bulletin a été fait il y a 29 minutes, à 10:00 UTC
Vent 16 kt de ouest/nord-ouest
Température 28°C
Humidité 37%
Pression 1011 hPa
Visibilité 10 km ou plus
pas de nuages en-dessous de 1500 mètres et pas de cumulonimbus.

METAR: OEJN 221000Z 30016KT CAVOK 28/12 Q1011 NOSIG

Heure: 13:29 (10:29 UTC)

Prévision

Le bulletin a été fait il y a 5 heures et 29 minutes, à 05:00 UTC
Prévision valable du 22 à 06 UTC au 23 à 12 UTC
Vent 12 kt de nord/nord-ouest avec des rafales jusqu'à 22 kt
Visibilité 10 km ou plus
pas de nuages en-dessous de 1500 mètres et pas de cumulonimbus.
Evoluant progressivement
du 22 à 20 UTC au 22 à 22 UTC
Vent 8 kt de nord/nord-est

TAF: OEJN 220500Z 2206/2312 33012G22KT CAVOK BECMG 2220/2222 03008KT

Observations et prévisions météorologiques de plus de 4000 aéroports (messages METAR et TAF).

Les stations disponibles sont représentées par des disques jaunes et rouges sur la carte.

Passer la souris dessus pour voir le nom de la station.

Cliquer dessus pour voir les observations et prévisions météorologiques.

Pour changer de carte: cliquez sur les boutons verts avec une croix noire pour zoomer, sur le bouton vert avec un tiret pour effectuer un zoom arrière, ou sur les flèches vertes pour les cartes adjacentes.


METAR-TAF: